Time;durP1;ratioP1;P1;durP2;ratioP2;P2;SDS_P1;SDS_P2;PMS_P1;PMS_P2;Temp;Humidity;BMP_temperature;BMP_pressure;BME280_temperature;BME280_humidity;BME280_pressure;Samples;Min_cycle;Max_cycle;Signal;HPM_P1;HPM_P2
2022/07/20 00:01:24;;;;;;;8.45;3.40;;;;;;;;;;5094778;28;20568;-74
2022/07/20 00:03:50;;;;;;;6.22;3.30;;;;;;;;;;5094459;28;20130;-74
2022/07/20 00:06:16;;;;;;;8.05;3.55;;;;;;;;;;5094858;28;20047;-74
2022/07/20 00:11:26;;;;;;;8.85;3.58;;;;;;;;;;5079605;28;20032;-74
2022/07/20 00:14:03;;;;;;;7.18;4.10;;;;;;;;;;5094505;28;20043;-74
2022/07/20 00:16:31;;;;;;;10.18;3.70;;;;;;;;;;5111796;28;20130;-73
2022/07/20 00:18:57;;;;;;;8.88;3.92;;;;;;;;;;5094407;28;20122;-74
2022/07/20 00:21:23;;;;;;;6.35;3.50;;;;;;;;;;5077399;28;20075;-74
2022/07/20 00:23:50;;;;;;;6.53;3.42;;;;;;;;;;5094208;28;20527;-74
2022/07/20 00:26:16;;;;;;;6.65;3.53;;;;;;;;;;5111283;28;20565;-74
2022/07/20 00:28:42;;;;;;;6.63;3.75;;;;;;;;;;5094002;28;20040;-73
2022/07/20 00:31:08;;;;;;;4.15;3.42;;;;;;;;;;5077822;28;20042;-72
2022/07/20 00:33:35;;;;;;;8.27;3.75;;;;;;;;;;5093584;28;20055;-74
2022/07/20 00:36:01;;;;;;;7.55;3.40;;;;;;;;;;5094216;28;20488;-74
2022/07/20 00:38:27;;;;;;;6.07;3.50;;;;;;;;;;5094676;28;20377;-74
2022/07/20 00:40:53;;;;;;;7.55;3.50;;;;;;;;;;5094129;28;20035;-74
2022/07/20 00:43:20;;;;;;;6.25;3.75;;;;;;;;;;5093556;28;20046;-75
2022/07/20 00:45:46;;;;;;;7.70;3.88;;;;;;;;;;5094437;28;20453;-74
2022/07/20 00:48:12;;;;;;;8.05;3.63;;;;;;;;;;5094095;28;20495;-74
2022/07/20 00:50:38;;;;;;;6.93;3.53;;;;;;;;;;5077578;28;20049;-73
2022/07/20 00:53:04;;;;;;;8.93;3.85;;;;;;;;;;5093510;28;20042;-74
2022/07/20 00:55:31;;;;;;;9.02;3.78;;;;;;;;;;5094273;28;20067;-74
2022/07/20 00:57:57;;;;;;;11.15;3.97;;;;;;;;;;5093893;28;20043;-73
2022/07/20 01:00:23;;;;;;;7.50;3.63;;;;;;;;;;5094119;28;20118;-74
2022/07/20 01:02:49;;;;;;;4.40;3.35;;;;;;;;;;5093643;28;20055;-74
2022/07/20 01:05:15;;;;;;;7.13;3.47;;;;;;;;;;5093669;28;20039;-73
2022/07/20 01:07:45;;;;;;;8.20;3.50;;;;;;;;;;5077477;28;20047;-72
2022/07/20 01:10:12;;;;;;;5.18;3.60;;;;;;;;;;5093193;28;20451;-81
2022/07/20 01:12:38;;;;;;;5.32;3.75;;;;;;;;;;5094404;28;20076;-80
2022/07/20 01:15:08;;;;;;;5.40;3.78;;;;;;;;;;5092068;28;20047;-80
2022/07/20 01:17:34;;;;;;;7.32;3.70;;;;;;;;;;5093977;28;20067;-81
2022/07/20 01:20:00;;;;;;;5.47;3.47;;;;;;;;;;5093954;28;20176;-81
2022/07/20 01:22:26;;;;;;;6.90;3.75;;;;;;;;;;5077372;28;21439;-81
2022/07/20 01:24:52;;;;;;;7.03;4.00;;;;;;;;;;5093500;28;20058;-81
2022/07/20 01:27:18;;;;;;;4.93;3.47;;;;;;;;;;5092651;28;20506;-81
2022/07/20 01:29:44;;;;;;;18.10;4.47;;;;;;;;;;5086357;28;20044;-81
2022/07/20 01:32:10;;;;;;;9.65;4.25;;;;;;;;;;5081060;28;20036;-80
2022/07/20 01:34:36;;;;;;;7.65;4.10;;;;;;;;;;5081061;28;20079;-81
2022/07/20 01:37:03;;;;;;;6.30;3.78;;;;;;;;;;5097611;28;20153;-81
2022/07/20 01:39:29;;;;;;;7.95;3.63;;;;;;;;;;5085312;28;20074;-81
2022/07/20 01:41:55;;;;;;;8.65;3.90;;;;;;;;;;5097952;28;20079;-81
2022/07/20 01:44:21;;;;;;;5.90;3.75;;;;;;;;;;5098177;28;20036;-81
2022/07/20 01:46:51;;;;;;;5.03;3.60;;;;;;;;;;5097748;28;20035;-81
2022/07/20 01:49:18;;;;;;;6.47;3.63;;;;;;;;;;5079306;28;20510;-81
2022/07/20 01:51:44;;;;;;;6.68;3.47;;;;;;;;;;5085247;28;20047;-81
2022/07/20 01:54:11;;;;;;;6.70;3.80;;;;;;;;;;5097496;28;20073;-81
2022/07/20 01:56:37;;;;;;;7.20;4.00;;;;;;;;;;5097197;28;20484;-81
2022/07/20 01:59:03;;;;;;;6.50;3.53;;;;;;;;;;5097415;28;20048;-80
2022/07/20 02:01:29;;;;;;;5.38;3.88;;;;;;;;;;5095632;28;20047;-81
2022/07/20 02:03:55;;;;;;;8.27;4.15;;;;;;;;;;5088330;28;20040;-81
2022/07/20 02:06:21;;;;;;;5.85;3.60;;;;;;;;;;5091754;28;20047;-82
2022/07/20 02:08:47;;;;;;;8.77;4.20;;;;;;;;;;5080178;28;20128;-81
2022/07/20 02:11:13;;;;;;;8.40;3.95;;;;;;;;;;5097010;28;20039;-81
2022/07/20 02:13:39;;;;;;;7.90;3.67;;;;;;;;;;5085742;28;20089;-81
2022/07/20 02:16:14;;;;;;;8.30;3.72;;;;;;;;;;5097167;28;20036;-80
2022/07/20 02:18:41;;;;;;;5.95;3.95;;;;;;;;;;5095181;28;20126;-81
2022/07/20 02:21:07;;;;;;;7.32;3.75;;;;;;;;;;5096459;28;20035;-80
2022/07/20 02:23:33;;;;;;;7.03;3.60;;;;;;;;;;5080667;28;20563;-80
2022/07/20 02:25:59;;;;;;;6.20;3.90;;;;;;;;;;5097299;28;20040;-81
2022/07/20 02:28:25;;;;;;;8.30;3.95;;;;;;;;;;5079795;28;20040;-81
2022/07/20 02:30:52;;;;;;;6.97;4.00;;;;;;;;;;5097187;28;20487;-81
2022/07/20 02:33:18;;;;;;;9.13;3.70;;;;;;;;;;5114514;28;20054;-81
2022/07/20 02:35:44;;;;;;;8.93;4.05;;;;;;;;;;5097094;28;20484;-81
2022/07/20 02:38:10;;;;;;;7.80;3.90;;;;;;;;;;5079434;28;20044;-80
2022/07/20 02:40:36;;;;;;;8.80;3.70;;;;;;;;;;5094131;28;20040;-81
2022/07/20 02:43:02;;;;;;;8.40;3.97;;;;;;;;;;5080111;28;20039;-77
2022/07/20 02:45:28;;;;;;;7.65;4.05;;;;;;;;;;5096186;28;20039;-80
2022/07/20 02:47:58;;;;;;;7.05;3.70;;;;;;;;;;5096702;28;20031;-81
2022/07/20 02:50:24;;;;;;;7.75;4.13;;;;;;;;;;5079419;28;20504;-81
2022/07/20 02:52:50;;;;;;;7.47;4.00;;;;;;;;;;5079962;28;20039;-80
2022/07/20 02:55:16;;;;;;;6.35;3.83;;;;;;;;;;5079817;28;20042;-81
2022/07/20 02:57:42;;;;;;;10.30;4.25;;;;;;;;;;5096425;28;20043;-75
2022/07/20 03:00:10;;;;;;;8.65;4.07;;;;;;;;;;5095860;28;20071;-80
2022/07/20 03:02:36;;;;;;;8.55;3.92;;;;;;;;;;5096693;28;20073;-80
2022/07/20 03:05:02;;;;;;;7.20;3.70;;;;;;;;;;5076034;28;20071;-81
2022/07/20 03:07:28;;;;;;;7.18;4.05;;;;;;;;;;5070217;28;20479;-81
2022/07/20 03:09:54;;;;;;;6.80;3.75;;;;;;;;;;5095359;28;20094;-75
2022/07/20 03:12:20;;;;;;;8.82;4.10;;;;;;;;;;5114191;28;20024;-75
2022/07/20 03:14:46;;;;;;;12.38;4.07;;;;;;;;;;5079262;28;20078;-81
2022/07/20 03:17:12;;;;;;;11.35;3.85;;;;;;;;;;5079259;28;20532;-80
2022/07/20 03:19:38;;;;;;;6.88;4.43;;;;;;;;;;5079307;28;20100;-76
2022/07/20 03:22:05;;;;;;;8.50;4.07;;;;;;;;;;5095113;28;20036;-81
2022/07/20 03:24:31;;;;;;;8.75;4.00;;;;;;;;;;5079190;28;20080;-81
2022/07/20 03:26:57;;;;;;;7.43;4.05;;;;;;;;;;5096282;28;20496;-78
2022/07/20 03:29:23;;;;;;;7.68;3.92;;;;;;;;;;5090189;28;20503;-81
2022/07/20 03:31:49;;;;;;;7.57;3.72;;;;;;;;;;5086797;28;20123;-77
2022/07/20 03:34:15;;;;;;;6.15;3.90;;;;;;;;;;5094680;28;20044;-78
2022/07/20 03:36:41;;;;;;;8.60;4.28;;;;;;;;;;5095605;28;20047;-81
2022/07/20 03:39:07;;;;;;;8.40;4.10;;;;;;;;;;5078624;28;20071;-81
2022/07/20 03:41:34;;;;;;;9.57;4.68;;;;;;;;;;5095236;28;20496;-81
2022/07/20 03:44:00;;;;;;;8.93;4.03;;;;;;;;;;5081862;28;20048;-78
2022/07/20 03:46:26;;;;;;;8.20;4.28;;;;;;;;;;5094835;28;20416;-81
2022/07/20 03:48:52;;;;;;;8.25;4.05;;;;;;;;;;5095230;28;20067;-68
2022/07/20 03:51:18;;;;;;;7.60;4.32;;;;;;;;;;5076808;28;20038;-68
2022/07/20 03:53:44;;;;;;;5.72;4.05;;;;;;;;;;5103370;28;20036;-67
2022/07/20 03:56:10;;;;;;;11.30;4.25;;;;;;;;;;5109322;28;20535;-67
2022/07/20 03:58:36;;;;;;;9.40;4.32;;;;;;;;;;5112341;28;20050;-68
2022/07/20 04:01:02;;;;;;;8.93;4.10;;;;;;;;;;5084293;28;20143;-68
2022/07/20 04:03:28;;;;;;;6.20;3.78;;;;;;;;;;5082965;28;20092;-68
2022/07/20 04:05:54;;;;;;;6.65;4.00;;;;;;;;;;5112289;28;20051;-68
2022/07/20 04:08:20;;;;;;;8.05;3.78;;;;;;;;;;5110863;28;20092;-78
2022/07/20 04:10:46;;;;;;;6.30;3.85;;;;;;;;;;5085657;28;20383;-80
2022/07/20 04:13:12;;;;;;;5.68;4.10;;;;;;;;;;5075749;28;20063;-80
2022/07/20 04:15:38;;;;;;;10.82;4.38;;;;;;;;;;5094884;28;20601;-80
2022/07/20 04:18:04;;;;;;;7.13;3.90;;;;;;;;;;5093270;28;20045;-80
2022/07/20 04:20:30;;;;;;;7.60;4.10;;;;;;;;;;5091428;28;20055;-81
2022/07/20 04:22:56;;;;;;;7.43;3.83;;;;;;;;;;5078317;28;20067;-80
2022/07/20 04:25:23;;;;;;;10.05;4.18;;;;;;;;;;5094946;28;20075;-79
2022/07/20 04:27:52;;;;;;;7.65;4.30;;;;;;;;;;5093515;28;20043;-79
2022/07/20 04:30:18;;;;;;;8.13;4.18;;;;;;;;;;5088062;28;20054;-80
2022/07/20 04:32:44;;;;;;;8.43;4.07;;;;;;;;;;5094176;28;20031;-80
2022/07/20 04:35:11;;;;;;;6.82;4.40;;;;;;;;;;5090227;28;21297;-80
2022/07/20 04:37:37;;;;;;;8.20;4.10;;;;;;;;;;5081643;28;20584;-80
2022/07/20 04:40:04;;;;;;;10.10;4.53;;;;;;;;;;5094765;28;20039;-80
2022/07/20 04:42:31;;;;;;;8.45;4.22;;;;;;;;;;5086667;28;20119;-79
2022/07/20 04:44:57;;;;;;;9.05;4.35;;;;;;;;;;5089718;28;20556;-81
2022/07/20 04:47:23;;;;;;;7.35;4.40;;;;;;;;;;5067655;28;20047;-79
2022/07/20 04:49:49;;;;;;;9.57;4.82;;;;;;;;;;5090462;28;20043;-80
2022/07/20 04:52:15;;;;;;;8.57;4.65;;;;;;;;;;5087505;28;20115;-81
2022/07/20 04:54:42;;;;;;;8.60;4.40;;;;;;;;;;5085032;28;20088;-81
2022/07/20 04:57:09;;;;;;;7.20;4.22;;;;;;;;;;5093099;28;20036;-77
2022/07/20 04:59:37;;;;;;;5.80;4.13;;;;;;;;;;5111653;28;20050;-80
2022/07/20 05:02:03;;;;;;;10.50;4.50;;;;;;;;;;5093344;28;20039;-79
2022/07/20 05:04:30;;;;;;;8.35;4.10;;;;;;;;;;5093372;28;20051;-79
2022/07/20 05:06:56;;;;;;;10.73;4.03;;;;;;;;;;5077991;28;20046;-80
2022/07/20 05:09:22;;;;;;;6.55;4.30;;;;;;;;;;5089581;28;20500;-79
2022/07/20 05:11:48;;;;;;;11.23;4.30;;;;;;;;;;5071914;28;20055;-80
2022/07/20 05:14:14;;;;;;;8.27;3.97;;;;;;;;;;5073118;28;20089;-80
2022/07/20 05:16:40;;;;;;;10.73;4.60;;;;;;;;;;5090538;28;20496;-80
2022/07/20 05:19:06;;;;;;;12.43;4.45;;;;;;;;;;5094517;28;20045;-80
2022/07/20 05:21:32;;;;;;;10.90;4.15;;;;;;;;;;5060825;28;20078;-81
2022/07/20 05:23:58;;;;;;;7.43;4.40;;;;;;;;;;5093377;28;20040;-81
2022/07/20 05:26:24;;;;;;;7.80;4.25;;;;;;;;;;5085157;28;20117;-80
2022/07/20 05:28:50;;;;;;;7.78;4.40;;;;;;;;;;5074179;28;20110;-81
2022/07/20 05:31:18;;;;;;;7.95;4.55;;;;;;;;;;5105372;28;20036;-80
2022/07/20 05:33:44;;;;;;;8.73;4.85;;;;;;;;;;5086442;28;20448;-80
2022/07/20 05:36:11;;;;;;;7.40;4.35;;;;;;;;;;5093895;28;20035;-80
2022/07/20 05:38:37;;;;;;;10.38;4.65;;;;;;;;;;5076699;28;20495;-81
2022/07/20 05:41:03;;;;;;;6.85;4.50;;;;;;;;;;5093914;28;20035;-79
2022/07/20 05:43:29;;;;;;;6.20;4.45;;;;;;;;;;5093845;28;20043;-80
2022/07/20 05:45:55;;;;;;;8.20;4.90;;;;;;;;;;5076150;28;20043;-80
2022/07/20 05:48:21;;;;;;;7.95;4.43;;;;;;;;;;5094067;28;20120;-80
2022/07/20 05:50:47;;;;;;;5.97;4.10;;;;;;;;;;5093444;28;20425;-79
2022/07/20 05:53:13;;;;;;;7.88;4.55;;;;;;;;;;5093705;28;20031;-80
2022/07/20 05:55:41;;;;;;;10.07;5.28;;;;;;;;;;5075809;28;20075;-80
2022/07/20 05:58:08;;;;;;;8.45;4.43;;;;;;;;;;5111522;28;20047;-80
2022/07/20 06:00:35;;;;;;;6.13;4.25;;;;;;;;;;5092170;28;20075;-79
2022/07/20 06:03:01;;;;;;;8.40;4.20;;;;;;;;;;5094045;28;20191;-80
2022/07/20 06:05:27;;;;;;;7.82;4.22;;;;;;;;;;5076404;28;20124;-80
2022/07/20 06:08:00;;;;;;;9.98;4.75;;;;;;;;;;5093032;28;20044;-79
2022/07/20 06:10:26;;;;;;;8.50;4.85;;;;;;;;;;5093261;28;20135;-80
2022/07/20 06:12:54;;;;;;;10.73;4.85;;;;;;;;;;5086201;28;20476;-79
2022/07/20 06:15:21;;;;;;;10.75;4.70;;;;;;;;;;5094969;28;20036;-78
2022/07/20 06:17:47;;;;;;;8.43;4.88;;;;;;;;;;5095767;28;20039;-78
2022/07/20 06:20:14;;;;;;;7.03;4.72;;;;;;;;;;5096753;28;20046;-78
2022/07/20 06:22:41;;;;;;;10.00;5.40;;;;;;;;;;5095692;28;20036;-76
2022/07/20 06:25:08;;;;;;;8.25;5.18;;;;;;;;;;5096639;28;20088;-74
2022/07/20 06:27:34;;;;;;;9.00;5.97;;;;;;;;;;5095456;28;20492;-75
2022/07/20 06:30:00;;;;;;;7.70;5.30;;;;;;;;;;5062586;28;20047;-75
2022/07/20 06:32:27;;;;;;;10.82;5.35;;;;;;;;;;5096807;28;20502;-74
2022/07/20 06:34:53;;;;;;;9.85;5.43;;;;;;;;;;5078941;28;20047;-74
2022/07/20 06:37:19;;;;;;;11.35;6.40;;;;;;;;;;5096518;28;20040;-86
2022/07/20 06:39:46;;;;;;;12.10;6.63;;;;;;;;;;5090378;28;20047;-78
2022/07/20 06:42:12;;;;;;;15.15;7.68;;;;;;;;;;5089215;28;20074;-72
2022/07/20 06:44:38;;;;;;;10.65;7.72;;;;;;;;;;5094251;28;20042;-72
2022/07/20 06:47:04;;;;;;;12.40;8.20;;;;;;;;;;5113997;28;20043;-72
2022/07/20 06:49:31;;;;;;;17.65;8.70;;;;;;;;;;5114305;28;20507;-71
2022/07/20 06:51:57;;;;;;;14.32;8.50;;;;;;;;;;5113947;28;20483;-72
2022/07/20 06:54:23;;;;;;;12.57;8.07;;;;;;;;;;5114389;28;20035;-72
2022/07/20 06:56:49;;;;;;;11.88;9.25;;;;;;;;;;5113403;28;20046;-71
2022/07/20 06:59:15;;;;;;;12.02;8.10;;;;;;;;;;5095757;28;20051;-72
2022/07/20 07:01:41;;;;;;;12.20;8.38;;;;;;;;;;5079330;28;20036;-72
2022/07/20 07:04:07;;;;;;;12.88;8.18;;;;;;;;;;5096350;28;20047;-72
2022/07/20 07:06:34;;;;;;;15.82;10.45;;;;;;;;;;5095716;28;20040;-72
2022/07/20 07:09:00;;;;;;;13.45;10.23;;;;;;;;;;5095222;28;20054;-72
2022/07/20 07:11:26;;;;;;;16.40;10.90;;;;;;;;;;5095505;28;20072;-72
2022/07/20 07:13:52;;;;;;;17.65;11.40;;;;;;;;;;5094913;28;20039;-72
2022/07/20 07:16:18;;;;;;;19.58;10.20;;;;;;;;;;5096134;28;20507;-71
2022/07/20 07:18:44;;;;;;;17.25;10.98;;;;;;;;;;5113114;28;20522;-72
2022/07/20 07:21:11;;;;;;;16.58;10.43;;;;;;;;;;5095596;28;20036;-72
2022/07/20 07:23:37;;;;;;;19.50;10.63;;;;;;;;;;5095644;28;20051;-72
2022/07/20 07:26:03;;;;;;;15.18;10.73;;;;;;;;;;5082107;28;20384;-72
2022/07/20 07:28:29;;;;;;;16.65;11.07;;;;;;;;;;5094591;28;20130;-71
2022/07/20 07:30:55;;;;;;;18.90;11.73;;;;;;;;;;5095339;28;20035;-71
2022/07/20 07:33:25;;;;;;;19.70;12.88;;;;;;;;;;5113746;28;20059;-71
2022/07/20 07:35:55;;;;;;;19.65;14.52;;;;;;;;;;5094740;28;20043;-71
2022/07/20 07:38:21;;;;;;;24.10;15.40;;;;;;;;;;5095226;28;20117;-71
2022/07/20 07:40:47;;;;;;;23.50;16.48;;;;;;;;;;5112482;28;20078;-71
2022/07/20 07:43:13;;;;;;;24.77;16.38;;;;;;;;;;5095108;28;20453;-71
2022/07/20 07:45:40;;;;;;;23.63;16.40;;;;;;;;;;5078469;28;20044;-71
2022/07/20 07:48:09;;;;;;;21.92;16.33;;;;;;;;;;5112930;28;20458;-72
2022/07/20 07:50:36;;;;;;;22.15;16.40;;;;;;;;;;5077906;28;20075;-73
2022/07/20 07:53:02;;;;;;;24.55;16.67;;;;;;;;;;5094491;28;20046;-72
2022/07/20 07:55:28;;;;;;;22.73;16.15;;;;;;;;;;5113245;28;20492;-71
2022/07/20 07:57:54;;;;;;;22.67;16.05;;;;;;;;;;5081347;28;20063;-73
2022/07/20 08:00:20;;;;;;;25.00;17.88;;;;;;;;;;5091996;28;20042;-72
2022/07/20 08:02:48;;;;;;;25.90;16.52;;;;;;;;;;5088550;28;20071;-72
2022/07/20 08:05:14;;;;;;;27.70;17.17;;;;;;;;;;5095115;28;20040;-72
2022/07/20 08:07:40;;;;;;;25.67;16.48;;;;;;;;;;5094578;28;20047;-71
2022/07/20 08:10:07;;;;;;;24.88;17.38;;;;;;;;;;5093419;28;20100;-71
2022/07/20 08:12:34;;;;;;;24.58;16.33;;;;;;;;;;5112674;28;20535;-72
2022/07/20 08:15:00;;;;;;;23.80;16.98;;;;;;;;;;5094221;28;20043;-72
2022/07/20 08:17:26;;;;;;;23.17;17.05;;;;;;;;;;5077280;28;20038;-71
2022/07/20 08:19:52;;;;;;;24.30;16.60;;;;;;;;;;5076933;28;20036;-71
2022/07/20 08:22:19;;;;;;;26.15;16.50;;;;;;;;;;5111843;28;20065;-71
2022/07/20 08:24:45;;;;;;;23.08;16.80;;;;;;;;;;5077008;28;20050;-72
2022/07/20 08:27:11;;;;;;;25.70;17.65;;;;;;;;;;5093345;28;20501;-71
2022/07/20 08:29:37;;;;;;;30.60;18.52;;;;;;;;;;5094051;28;20039;-72
2022/07/20 08:32:04;;;;;;;22.63;17.67;;;;;;;;;;5093580;28;20038;-72
2022/07/20 08:34:30;;;;;;;23.73;18.58;;;;;;;;;;5112431;28;20179;-70
2022/07/20 08:36:56;;;;;;;30.13;19.20;;;;;;;;;;5110807;28;20082;-70
2022/07/20 08:39:22;;;;;;;29.95;19.23;;;;;;;;;;5112976;28;20079;-71
2022/07/20 08:41:48;;;;;;;24.38;19.88;;;;;;;;;;5092523;28;20093;-71
2022/07/20 08:44:14;;;;;;;25.48;18.85;;;;;;;;;;5093988;28;20094;-74
2022/07/20 08:46:43;;;;;;;31.45;18.60;;;;;;;;;;5112076;28;20071;-74
2022/07/20 08:49:09;;;;;;;24.65;17.27;;;;;;;;;;5093755;28;20047;-73
2022/07/20 08:51:35;;;;;;;26.02;16.63;;;;;;;;;;5094335;28;20440;-74
2022/07/20 08:54:01;;;;;;;25.80;16.15;;;;;;;;;;5093590;28;20146;-73
2022/07/20 08:56:27;;;;;;;24.30;16.55;;;;;;;;;;5093792;28;20588;-73
2022/07/20 08:58:53;;;;;;;26.02;16.33;;;;;;;;;;5094037;28;20496;-73
2022/07/20 09:01:20;;;;;;;22.83;14.95;;;;;;;;;;5077153;28;20393;-74
2022/07/20 09:04:06;;;;;;;24.55;14.32;;;;;;;;;;5093816;28;20048;-73
2022/07/20 09:06:32;;;;;;;21.58;13.90;;;;;;;;;;5111179;28;20032;-74
2022/07/20 09:09:03;;;;;;;21.67;13.88;;;;;;;;;;5092016;28;20128;-75
2022/07/20 09:11:29;;;;;;;19.55;13.40;;;;;;;;;;5093248;28;20054;-73
2022/07/20 09:13:55;;;;;;;22.38;13.40;;;;;;;;;;5111482;28;20059;-73
2022/07/20 09:16:46;;;;;;;21.45;14.32;;;;;;;;;;5093676;28;20047;-74
2022/07/20 09:19:14;;;;;;;21.35;13.93;;;;;;;;;;5091406;28;20518;-73
2022/07/20 09:21:41;;;;;;;21.15;13.35;;;;;;;;;;5093892;28;20070;-73
2022/07/20 09:24:08;;;;;;;21.20;12.80;;;;;;;;;;5071192;28;20040;-73
2022/07/20 09:26:35;;;;;;;19.08;12.93;;;;;;;;;;5112094;28;20139;-72
2022/07/20 09:29:03;;;;;;;20.42;12.30;;;;;;;;;;5104454;28;20040;-75
2022/07/20 09:31:30;;;;;;;24.50;12.40;;;;;;;;;;5093995;28;20515;-75
2022/07/20 09:33:58;;;;;;;16.95;12.40;;;;;;;;;;5088838;28;20040;-75
2022/07/20 09:36:25;;;;;;;18.58;12.20;;;;;;;;;;5089873;28;20044;-75
2022/07/20 09:38:51;;;;;;;17.92;11.60;;;;;;;;;;5089786;28;20098;-74
2022/07/20 09:41:26;;;;;;;18.27;11.73;;;;;;;;;;5089991;28;20042;-74
2022/07/20 09:43:53;;;;;;;17.17;10.50;;;;;;;;;;5090106;28;20051;-73
2022/07/20 09:46:24;;;;;;;14.75;10.82;;;;;;;;;;5090669;28;20047;-73
2022/07/20 09:48:51;;;;;;;20.83;10.95;;;;;;;;;;5089714;28;20054;-73
2022/07/20 09:51:22;;;;;;;16.52;10.82;;;;;;;;;;5088947;28;20028;-74
2022/07/20 09:53:48;;;;;;;15.77;10.27;;;;;;;;;;5076612;28;20036;-72
2022/07/20 09:56:15;;;;;;;17.02;10.10;;;;;;;;;;5076573;28;20059;-74
2022/07/20 09:58:42;;;;;;;17.40;10.05;;;;;;;;;;5093940;28;20040;-75
2022/07/20 10:01:09;;;;;;;16.77;9.68;;;;;;;;;;5089319;28;20076;-75
2022/07/20 10:03:36;;;;;;;18.00;9.48;;;;;;;;;;5091678;28;20453;-74
2022/07/20 10:06:03;;;;;;;14.40;9.30;;;;;;;;;;5076399;28;20043;-74
2022/07/20 10:08:29;;;;;;;15.15;8.85;;;;;;;;;;5092040;28;20124;-73
2022/07/20 10:10:56;;;;;;;15.38;9.32;;;;;;;;;;5093343;28;20042;-74
2022/07/20 10:13:22;;;;;;;16.35;9.30;;;;;;;;;;5093284;28;20051;-74
2022/07/20 10:15:59;;;;;;;13.35;9.50;;;;;;;;;;5087698;28;20393;-73
2022/07/20 10:18:26;;;;;;;13.98;9.10;;;;;;;;;;5076102;28;20047;-71
2022/07/20 10:20:52;;;;;;;16.52;9.30;;;;;;;;;;5093238;28;20412;-72
2022/07/20 10:23:26;;;;;;;14.93;9.50;;;;;;;;;;5093288;28;20047;-76
2022/07/20 10:25:52;;;;;;;16.80;9.32;;;;;;;;;;5077006;28;20032;-76
2022/07/20 10:28:24;;;;;;;15.68;10.20;;;;;;;;;;5091321;28;20115;-78
2022/07/20 10:30:54;;;;;;;15.50;9.40;;;;;;;;;;5093338;28;20032;-76
2022/07/20 10:33:21;;;;;;;17.30;9.20;;;;;;;;;;5092876;28;20060;-77
2022/07/20 10:35:48;;;;;;;15.35;9.80;;;;;;;;;;5093785;28;20071;-75
2022/07/20 10:38:19;;;;;;;14.02;9.32;;;;;;;;;;5083567;28;20089;-76
2022/07/20 10:44:07;;;;;;;14.75;8.90;;;;;;;;;;5093198;28;20052;-77
2022/07/20 10:46:36;;;;;;;13.38;8.70;;;;;;;;;;5081663;28;20087;-76
2022/07/20 10:49:02;;;;;;;13.30;8.95;;;;;;;;;;5075760;28;20036;-76
2022/07/20 10:51:28;;;;;;;15.10;9.00;;;;;;;;;;5092687;28;20510;-77
2022/07/20 10:53:54;;;;;;;15.55;8.50;;;;;;;;;;5092738;28;20082;-76
2022/07/20 10:56:30;;;;;;;12.68;8.80;;;;;;;;;;5093992;28;20071;-76
2022/07/20 10:59:00;;;;;;;13.85;8.20;;;;;;;;;;5092389;28;20048;-77
2022/07/20 11:01:26;;;;;;;10.73;7.28;;;;;;;;;;5088127;28;20036;-77
2022/07/20 11:03:52;;;;;;;12.48;8.27;;;;;;;;;;5092264;28;20400;-77
2022/07/20 11:06:18;;;;;;;10.77;7.85;;;;;;;;;;5092108;28;20101;-77
2022/07/20 11:08:49;;;;;;;11.40;7.88;;;;;;;;;;5092575;28;20105;-77
2022/07/20 11:11:20;;;;;;;13.77;7.93;;;;;;;;;;5092172;28;20050;-77
2022/07/20 11:13:46;;;;;;;13.13;7.95;;;;;;;;;;5073076;28;20036;-76
2022/07/20 11:16:12;;;;;;;11.82;7.47;;;;;;;;;;5085338;28;20486;-78
2022/07/20 11:18:39;;;;;;;10.80;7.32;;;;;;;;;;5092676;28;20032;-78
2022/07/20 11:21:09;;;;;;;10.77;7.03;;;;;;;;;;5092045;28;20039;-77
2022/07/20 11:23:40;;;;;;;12.73;7.45;;;;;;;;;;5088437;28;20055;-77
2022/07/20 11:26:07;;;;;;;9.38;6.88;;;;;;;;;;5078617;28;20555;-78
2022/07/20 11:28:49;;;;;;;11.52;6.78;;;;;;;;;;5091897;28;20489;-77
2022/07/20 11:31:23;;;;;;;9.52;6.65;;;;;;;;;;5078607;28;20036;-78
2022/07/20 11:33:50;;;;;;;11.82;6.68;;;;;;;;;;5075521;28;20047;-78
2022/07/20 11:36:16;;;;;;;15.38;7.57;;;;;;;;;;5078494;28;20028;-76
2022/07/20 11:38:44;;;;;;;13.57;7.78;;;;;;;;;;5095424;28;20046;-77
2022/07/20 11:41:11;;;;;;;10.18;7.43;;;;;;;;;;5093473;28;20036;-76
2022/07/20 11:43:37;;;;;;;12.73;7.70;;;;;;;;;;5077905;28;20512;-76
2022/07/20 11:46:10;;;;;;;11.35;7.70;;;;;;;;;;5094306;28;20035;-77
2022/07/20 11:48:36;;;;;;;12.88;7.82;;;;;;;;;;5094791;28;20071;-76
2022/07/20 11:51:02;;;;;;;12.70;7.80;;;;;;;;;;5078379;28;20483;-78
2022/07/20 11:53:29;;;;;;;11.60;7.95;;;;;;;;;;5078119;28;20066;-76
2022/07/20 11:55:56;;;;;;;15.70;8.30;;;;;;;;;;5077709;28;20506;-77
2022/07/20 11:58:24;;;;;;;13.68;9.10;;;;;;;;;;5093610;28;20035;-76
2022/07/20 12:00:50;;;;;;;11.95;9.00;;;;;;;;;;5094294;28;20400;-76
2022/07/20 12:03:16;;;;;;;11.52;8.40;;;;;;;;;;5090218;28;20051;-77
2022/07/20 12:05:42;;;;;;;15.18;9.30;;;;;;;;;;5093215;28;20100;-77
2022/07/20 12:08:15;;;;;;;15.82;9.40;;;;;;;;;;5095009;28;20369;-77
2022/07/20 12:10:42;;;;;;;13.55;9.52;;;;;;;;;;5094182;28;20461;-76
2022/07/20 12:13:10;;;;;;;12.70;9.55;;;;;;;;;;5093220;28;20092;-77
2022/07/20 12:15:36;;;;;;;12.85;9.15;;;;;;;;;;5093938;28;20035;-76
2022/07/20 12:18:02;;;;;;;14.77;9.55;;;;;;;;;;5094212;28;20043;-78
2022/07/20 12:20:28;;;;;;;12.95;8.80;;;;;;;;;;5094022;28;20104;-76
2022/07/20 12:22:58;;;;;;;12.55;8.82;;;;;;;;;;5077731;28;20044;-76
2022/07/20 12:25:39;;;;;;;13.45;8.50;;;;;;;;;;5077157;28;20043;-77
2022/07/20 12:28:05;;;;;;;12.32;8.50;;;;;;;;;;5109872;28;20050;-76
2022/07/20 12:30:34;;;;;;;10.32;7.30;;;;;;;;;;5093400;28;20067;-76
2022/07/20 12:33:14;;;;;;;11.60;7.57;;;;;;;;;;5094468;28;20447;-76
2022/07/20 12:35:48;;;;;;;10.70;7.43;;;;;;;;;;5092992;28;20044;-76
2022/07/20 12:38:15;;;;;;;11.43;7.00;;;;;;;;;;5090386;28;20480;-77
2022/07/20 12:40:42;;;;;;;9.07;6.43;;;;;;;;;;5103213;28;20458;-76
2022/07/20 12:43:27;;;;;;;10.05;7.03;;;;;;;;;;5080738;28;20039;-76
2022/07/20 12:45:54;;;;;;;12.13;7.05;;;;;;;;;;5090476;28;20040;-77
2022/07/20 12:48:20;;;;;;;11.60;6.30;;;;;;;;;;5093737;28;20084;-73
2022/07/20 12:50:46;;;;;;;7.60;5.75;;;;;;;;;;5093623;28;20463;-74
2022/07/20 12:53:12;;;;;;;8.73;5.60;;;;;;;;;;5074579;28;20032;-74
2022/07/20 12:55:39;;;;;;;8.25;5.85;;;;;;;;;;5084304;28;20039;-70
2022/07/20 12:58:05;;;;;;;8.90;5.93;;;;;;;;;;5090891;28;20051;-72
2022/07/20 13:00:31;;;;;;;9.57;5.80;;;;;;;;;;5093605;28;20135;-71
2022/07/20 13:02:57;;;;;;;7.25;5.47;;;;;;;;;;5111969;28;20040;-70
2022/07/20 13:05:23;;;;;;;9.65;5.90;;;;;;;;;;5094070;28;20092;-68
2022/07/20 13:07:49;;;;;;;9.35;5.75;;;;;;;;;;5111688;28;20641;-67
2022/07/20 13:10:15;;;;;;;6.55;5.20;;;;;;;;;;5110769;28;20094;-69
2022/07/20 13:12:42;;;;;;;7.97;5.15;;;;;;;;;;5090257;28;20043;-69
2022/07/20 13:15:09;;;;;;;8.68;5.55;;;;;;;;;;5109547;28;20047;-68
2022/07/20 13:17:35;;;;;;;9.30;5.80;;;;;;;;;;5111594;28;20046;-69
2022/07/20 13:20:01;;;;;;;9.48;5.65;;;;;;;;;;5093445;28;20840;-69
2022/07/20 13:22:27;;;;;;;9.48;5.72;;;;;;;;;;5111948;28;20077;-69
2022/07/20 13:24:53;;;;;;;8.95;5.68;;;;;;;;;;5114584;28;20395;-69
2022/07/20 13:27:19;;;;;;;9.55;5.45;;;;;;;;;;5098283;28;20044;-70
2022/07/20 13:29:46;;;;;;;10.05;5.78;;;;;;;;;;5097509;28;20058;-70
2022/07/20 13:32:12;;;;;;;8.27;5.10;;;;;;;;;;5115918;28;20093;-69
2022/07/20 13:34:38;;;;;;;7.90;5.60;;;;;;;;;;5115675;28;20080;-69
2022/07/20 13:37:04;;;;;;;9.55;5.65;;;;;;;;;;5116083;28;20119;-70
2022/07/20 13:39:31;;;;;;;9.63;5.88;;;;;;;;;;5115342;28;20118;-68
2022/07/20 13:41:57;;;;;;;11.52;6.20;;;;;;;;;;5096547;28;20044;-69
2022/07/20 13:44:23;;;;;;;8.32;5.70;;;;;;;;;;5115562;28;20048;-69
2022/07/20 13:46:50;;;;;;;8.13;5.20;;;;;;;;;;5115135;28;20264;-69
2022/07/20 13:49:17;;;;;;;9.70;5.75;;;;;;;;;;5095998;28;20055;-69
2022/07/20 13:51:43;;;;;;;10.77;6.00;;;;;;;;;;5110497;28;20515;-68
2022/07/20 13:54:09;;;;;;;10.15;5.88;;;;;;;;;;5108470;28;20039;-68
2022/07/20 13:56:35;;;;;;;8.35;5.85;;;;;;;;;;5097069;28;20085;-68
2022/07/20 13:59:01;;;;;;;8.15;5.68;;;;;;;;;;5115779;28;20044;-68
2022/07/20 14:01:28;;;;;;;10.75;5.88;;;;;;;;;;5095323;28;20040;-68
2022/07/20 14:03:54;;;;;;;7.88;5.88;;;;;;;;;;5113606;28;20050;-69
2022/07/20 14:06:21;;;;;;;10.57;6.15;;;;;;;;;;5097125;28;20201;-69
2022/07/20 14:08:47;;;;;;;8.98;6.03;;;;;;;;;;5114910;28;20034;-68
2022/07/20 14:11:14;;;;;;;8.55;5.90;;;;;;;;;;5112638;28;20454;-69
2022/07/20 14:13:40;;;;;;;9.75;6.25;;;;;;;;;;5096650;28;20404;-69
2022/07/20 14:16:06;;;;;;;7.82;6.20;;;;;;;;;;5112427;28;20043;-68
2022/07/20 14:18:32;;;;;;;9.73;6.82;;;;;;;;;;5113977;28;20040;-69
2022/07/20 14:20:59;;;;;;;8.90;6.57;;;;;;;;;;5114907;28;20488;-69
2022/07/20 14:23:25;;;;;;;9.95;6.50;;;;;;;;;;5110694;28;20039;-69
2022/07/20 14:25:52;;;;;;;8.45;6.25;;;;;;;;;;5096060;28;20092;-68
2022/07/20 14:28:18;;;;;;;10.40;6.93;;;;;;;;;;5113143;28;20417;-69
2022/07/20 14:30:44;;;;;;;10.43;6.93;;;;;;;;;;5090111;28;20048;-69
2022/07/20 14:33:11;;;;;;;11.05;7.25;;;;;;;;;;5107717;28;20093;-69
2022/07/20 14:35:38;;;;;;;10.13;7.13;;;;;;;;;;5090708;28;20032;-69
2022/07/20 14:38:04;;;;;;;11.23;6.95;;;;;;;;;;5093587;28;20107;-69